Time;durP1;ratioP1;P1;durP2;ratioP2;P2;SDS_P1;SDS_P2;PMS_P1;PMS_P2;Temp;Humidity;BMP_temperature;BMP_pressure;BME280_temperature;BME280_humidity;BME280_pressure;Samples;Min_cycle;Max_cycle;Signal;HPM_P1;HPM_P2
2023/09/14 00:04:53;;;;;;;10.43;4.78;;;;;;;;;;10478341;28;20444;-81
2023/09/14 00:09:57;;;;;;;8.43;4.47;;;;;;;;;;10475715;28;20041;-80
2023/09/14 00:15:00;;;;;;;10.32;5.00;;;;;;;;;;10480308;28;20102;-79
2023/09/14 00:20:02;;;;;;;10.32;5.22;;;;;;;;;;10478028;28;20051;-79
2023/09/14 00:25:08;;;;;;;8.60;5.10;;;;;;;;;;10480397;28;20474;-79
2023/09/14 00:30:11;;;;;;;11.32;4.68;;;;;;;;;;10481537;28;20051;-79
2023/09/14 00:35:14;;;;;;;13.32;5.22;;;;;;;;;;10482124;28;20064;-79
2023/09/14 00:40:17;;;;;;;;;;;;;;;;;;10476098;28;20132;-79
2023/09/14 00:45:22;;;;;;;11.52;4.78;;;;;;;;;;10477017;28;19932;-79
2023/09/14 00:50:25;;;;;;;11.68;5.60;;;;;;;;;;10478417;28;20054;-79
2023/09/14 00:55:28;;;;;;;12.32;5.30;;;;;;;;;;10485058;28;20226;-79
2023/09/14 01:00:32;;;;;;;12.88;6.32;;;;;;;;;;10480605;28;20170;-79
2023/09/14 01:05:35;;;;;;;13.32;5.43;;;;;;;;;;10490505;28;20154;-79
2023/09/14 01:10:37;;;;;;;14.07;5.70;;;;;;;;;;10480712;28;20116;-78
2023/09/14 01:15:43;;;;;;;13.70;6.90;;;;;;;;;;10476554;28;20079;-79
2023/09/14 01:20:50;;;;;;;13.85;5.90;;;;;;;;;;10480428;28;20094;-79
2023/09/14 01:25:55;;;;;;;15.68;6.47;;;;;;;;;;10485660;28;20088;-79
2023/09/14 01:30:58;;;;;;;12.80;5.90;;;;;;;;;;10478380;28;20041;-79
2023/09/14 01:36:06;;;;;;;13.00;5.60;;;;;;;;;;10474198;28;20140;-80
2023/09/14 01:41:11;;;;;;;13.70;6.68;;;;;;;;;;10483855;28;20045;-80
2023/09/14 01:46:14;;;;;;;14.75;6.53;;;;;;;;;;10472704;28;20112;-79
2023/09/14 01:51:17;;;;;;;;;;;;;;;;;;10479247;28;20036;-79
2023/09/14 01:56:23;;;;;;;14.30;6.68;;;;;;;;;;10483042;28;20032;-79
2023/09/14 02:01:25;;;;;;;15.05;7.20;;;;;;;;;;10480428;28;21534;-79
2023/09/14 02:06:28;;;;;;;15.48;6.57;;;;;;;;;;10474684;28;20056;-80
2023/09/14 02:11:32;;;;;;;22.15;7.60;;;;;;;;;;10480631;28;20152;-79
2023/09/14 02:16:35;;;;;;;22.42;8.70;;;;;;;;;;10477584;28;20719;-80
2023/09/14 02:21:38;;;;;;;20.70;7.97;;;;;;;;;;10478632;28;20044;-79
2023/09/14 02:26:42;;;;;;;19.08;8.75;;;;;;;;;;10480773;28;20048;-78
2023/09/14 02:31:44;;;;;;;21.77;9.23;;;;;;;;;;10475374;28;20044;-79
2023/09/14 02:36:47;;;;;;;23.10;8.65;;;;;;;;;;10474987;28;20050;-79
2023/09/14 02:41:51;;;;;;;20.87;8.67;;;;;;;;;;10481620;28;20508;-79
2023/09/14 02:46:54;;;;;;;19.98;8.13;;;;;;;;;;10473305;28;20044;-79
2023/09/14 02:51:56;;;;;;;19.40;9.20;;;;;;;;;;10477681;28;20702;-78
2023/09/14 02:57:00;;;;;;;21.23;9.50;;;;;;;;;;10476282;28;20509;-79
2023/09/14 03:02:03;;;;;;;20.30;9.00;;;;;;;;;;10479174;28;20043;-79
2023/09/14 03:07:06;;;;;;;25.33;9.80;;;;;;;;;;10476190;28;20040;-79
2023/09/14 03:12:10;;;;;;;20.70;8.50;;;;;;;;;;10475652;28;20365;-79
2023/09/14 03:17:12;;;;;;;21.98;10.35;;;;;;;;;;10477174;28;20078;-78
2023/09/14 03:22:17;;;;;;;22.05;9.75;;;;;;;;;;10475908;28;20500;-78
2023/09/14 03:27:20;;;;;;;26.20;10.35;;;;;;;;;;10475970;28;20070;-78
2023/09/14 03:32:23;;;;;;;22.88;10.48;;;;;;;;;;10484869;28;20100;-78
2023/09/14 03:37:26;;;;;;;23.45;9.80;;;;;;;;;;10478957;28;20056;-78
2023/09/14 03:42:31;;;;;;;24.73;10.55;;;;;;;;;;10473974;28;20131;-78
2023/09/14 03:47:33;;;;;;;25.85;10.52;;;;;;;;;;10477635;28;20090;-78
2023/09/14 03:52:36;;;;;;;25.83;10.70;;;;;;;;;;10468631;28;20037;-78
2023/09/14 03:57:46;;;;;;;24.00;10.43;;;;;;;;;;10475574;28;20077;-78
2023/09/14 04:02:49;;;;;;;30.13;11.10;;;;;;;;;;10480637;28;20067;-78
2023/09/14 04:07:52;;;;;;;26.63;10.80;;;;;;;;;;10476654;28;20439;-78
2023/09/14 04:12:58;;;;;;;26.97;11.90;;;;;;;;;;10474464;28;20103;-78
2023/09/14 04:18:01;;;;;;;28.67;10.57;;;;;;;;;;10482469;28;20068;-78
2023/09/14 04:23:03;;;;;;;25.27;11.07;;;;;;;;;;10486773;28;20052;-77
2023/09/14 04:28:07;;;;;;;29.77;11.27;;;;;;;;;;10481880;28;20127;-77
2023/09/14 04:33:10;;;;;;;28.58;11.35;;;;;;;;;;10483270;28;20048;-78
2023/09/14 04:38:13;;;;;;;25.63;10.63;;;;;;;;;;10484974;28;20798;-78
2023/09/14 04:43:17;;;;;;;29.02;12.35;;;;;;;;;;10484968;28;20094;-77
2023/09/14 04:48:20;;;;;;;26.08;12.05;;;;;;;;;;10486459;28;20052;-78
2023/09/14 04:53:24;;;;;;;28.52;11.85;;;;;;;;;;10480641;28;20335;-79
2023/09/14 04:58:28;;;;;;;30.48;12.32;;;;;;;;;;10479397;28;20044;-80
2023/09/14 05:03:31;;;;;;;30.23;11.98;;;;;;;;;;10481149;28;20036;-80
2023/09/14 05:08:34;;;;;;;28.30;11.27;;;;;;;;;;10483019;28;20453;-80
2023/09/14 05:13:38;;;;;;;30.27;12.13;;;;;;;;;;10478065;28;20502;-78
2023/09/14 05:18:40;;;;;;;27.27;12.43;;;;;;;;;;10480689;28;20060;-78
2023/09/14 05:23:43;;;;;;;26.23;11.17;;;;;;;;;;10481928;28;20572;-78
2023/09/14 05:28:47;;;;;;;29.53;12.30;;;;;;;;;;10483187;28;20093;-78
2023/09/14 05:33:49;;;;;;;29.02;11.65;;;;;;;;;;10476467;28;20147;-77
2023/09/14 05:38:52;;;;;;;27.43;12.00;;;;;;;;;;10488784;28;20130;-78
2023/09/14 05:43:56;;;;;;;24.93;10.60;;;;;;;;;;10473916;28;20040;-79
2023/09/14 05:48:59;;;;;;;24.10;10.05;;;;;;;;;;10482153;28;20401;-78
2023/09/14 05:54:01;;;;;;;27.50;11.73;;;;;;;;;;10485829;28;20503;-78
2023/09/14 05:59:05;;;;;;;24.87;11.40;;;;;;;;;;10471879;28;20101;-79
2023/09/14 06:04:27;;;;;;;29.37;11.47;;;;;;;;;;10476404;28;20043;-79
2023/09/14 06:09:30;;;;;;;28.17;11.73;;;;;;;;;;10479836;28;20114;-79
2023/09/14 06:14:34;;;;;;;29.00;12.50;;;;;;;;;;10483258;28;20116;-79
2023/09/14 06:19:36;;;;;;;32.17;13.85;;;;;;;;;;10481431;28;20139;-79
2023/09/14 06:24:39;;;;;;;27.40;12.47;;;;;;;;;;10482021;28;20128;-79
2023/09/14 06:29:43;;;;;;;29.63;13.73;;;;;;;;;;10475491;28;20040;-78
2023/09/14 06:34:46;;;;;;;34.10;16.02;;;;;;;;;;10472708;28;20147;-78
2023/09/14 06:39:49;;;;;;;29.65;14.48;;;;;;;;;;10481150;28;20036;-79
2023/09/14 06:44:53;;;;;;;29.27;13.57;;;;;;;;;;10476753;28;20050;-79
2023/09/14 06:49:55;;;;;;;29.52;14.05;;;;;;;;;;10483283;28;20556;-80
2023/09/14 06:54:58;;;;;;;31.60;15.30;;;;;;;;;;10480103;28;20049;-79
2023/09/14 07:00:07;;;;;;;28.97;14.03;;;;;;;;;;10477135;28;20311;-79
2023/09/14 07:05:10;;;;;;;30.98;14.30;;;;;;;;;;10474899;28;20464;-79
2023/09/14 07:10:13;;;;;;;30.33;14.27;;;;;;;;;;10479256;28;20124;-78
2023/09/14 07:15:17;;;;;;;31.65;15.30;;;;;;;;;;10477263;28;20406;-76
2023/09/14 07:20:20;;;;;;;32.45;15.13;;;;;;;;;;10482075;28;20557;-77
2023/09/14 07:25:23;;;;;;;27.65;14.95;;;;;;;;;;10486054;28;20314;-77
2023/09/14 07:30:27;;;;;;;27.90;14.02;;;;;;;;;;10500229;28;20797;-82
2023/09/14 07:35:29;;;;;;;30.95;15.65;;;;;;;;;;10504306;28;20049;-79
2023/09/14 07:40:32;;;;;;;33.20;15.30;;;;;;;;;;10506758;28;20048;-80
2023/09/14 07:45:38;;;;;;;34.40;16.53;;;;;;;;;;10499900;28;20041;-81
2023/09/14 07:50:41;;;;;;;43.65;21.33;;;;;;;;;;10479503;28;20383;-78
2023/09/14 07:55:45;;;;;;;30.98;15.38;;;;;;;;;;10493040;28;20116;-80
2023/09/14 08:00:49;;;;;;;32.20;15.23;;;;;;;;;;10494820;28;20151;-81
2023/09/14 08:05:52;;;;;;;32.63;16.13;;;;;;;;;;10491943;28;20529;-80
2023/09/14 08:10:55;;;;;;;34.30;16.30;;;;;;;;;;10482183;28;20043;-81
2023/09/14 08:16:04;;;;;;;27.42;13.73;;;;;;;;;;10490422;28;20663;-81
2023/09/14 08:21:07;;;;;;;33.22;16.77;;;;;;;;;;10489378;28;20136;-81
2023/09/14 08:26:09;;;;;;;28.00;15.35;;;;;;;;;;10487023;28;20127;-81
2023/09/14 08:31:13;;;;;;;28.08;15.27;;;;;;;;;;10492470;28;20438;-80
2023/09/14 08:36:16;;;;;;;29.45;15.27;;;;;;;;;;10492004;28;20105;-84
2023/09/14 08:41:26;;;;;;;29.92;15.50;;;;;;;;;;10497564;28;20029;-81
2023/09/14 08:46:30;;;;;;;26.42;14.43;;;;;;;;;;10486801;28;20055;-80
2023/09/14 08:51:34;;;;;;;28.25;14.60;;;;;;;;;;10487274;28;20043;-80
2023/09/14 08:56:37;;;;;;;28.27;15.25;;;;;;;;;;10478356;28;20060;-81
2023/09/14 09:01:41;;;;;;;42.42;21.42;;;;;;;;;;10483912;28;20044;-80
2023/09/14 09:06:44;;;;;;;23.60;13.77;;;;;;;;;;10481434;28;20052;-80
2023/09/14 09:11:48;;;;;;;;;;;;;;;;;;10491975;28;20028;-80
2023/09/14 09:16:50;;;;;;;;;;;;;;;;;;10483811;28;20023;-80
2023/09/14 09:21:53;;;;;;;;;;;;;;;;;;10490416;28;20269;-79
2023/09/14 09:26:56;;;;;;;;;;;;;;;;;;10481382;28;19932;-78
2023/09/14 09:31:58;;;;;;;;;;;;;;;;;;10480241;28;19943;-79
2023/09/14 09:37:03;;;;;;;;;;;;;;;;;;10485695;28;19947;-77
2023/09/14 09:42:06;;;;;;;;;;;;;;;;;;10482561;28;19924;-78
2023/09/14 09:47:08;;;;;;;;;;;;;;;;;;10489601;28;20035;-77
2023/09/14 09:52:11;;;;;;;;;;;;;;;;;;10485470;28;19974;-78
2023/09/14 09:57:14;;;;;;;;;;;;;;;;;;10487597;28;20361;-79
2023/09/14 10:02:17;;;;;;;;;;;;;;;;;;10505800;28;19920;-79
2023/09/14 10:07:19;;;;;;;;;;;;;;;;;;10487481;28;19921;-79
2023/09/14 10:12:22;;;;;;;;;;;;;;;;;;10491124;28;20429;-80
2023/09/14 10:17:25;;;;;;;;;;;;;;;;;;10479140;28;19962;-79
2023/09/14 10:22:27;;;;;;;;;;;;;;;;;;10486174;28;20410;-79
2023/09/14 10:27:30;;;;;;;;;;;;;;;;;;10484539;28;19940;-79
2023/09/14 10:32:33;;;;;;;;;;;;;;;;;;10479605;28;19924;-81
2023/09/14 10:37:36;;;;;;;;;;;;;;;;;;10482346;28;19950;-87
2023/09/14 10:42:38;;;;;;;;;;;;;;;;;;10496073;28;19997;-82
2023/09/14 10:47:41;;;;;;;;;;;;;;;;;;10480177;28;19959;-84
2023/09/14 10:52:43;;;;;;;;;;;;;;;;;;10484420;28;19952;-83
2023/09/14 10:57:46;;;;;;;;;;;;;;;;;;10481569;28;20026;-82
2023/09/14 11:02:49;;;;;;;;;;;;;;;;;;10479215;28;19935;-82
2023/09/14 11:07:53;;;;;;;;;;;;;;;;;;10481978;28;19924;-81
2023/09/14 11:12:55;;;;;;;;;;;;;;;;;;10480562;28;20280;-81
2023/09/14 11:17:59;;;;;;;;;;;;;;;;;;10483593;28;19931;-84
2023/09/14 11:23:02;;;;;;;;;;;;;;;;;;10488773;28;19920;-82
2023/09/14 11:28:05;;;;;;;;;;;;;;;;;;10485468;28;19920;-82
2023/09/14 11:33:09;;;;;;;;;;;;;;;;;;10482710;28;19921;-82
2023/09/14 11:38:12;;;;;;;;;;;;;;;;;;10484376;28;19920;-81
2023/09/14 11:43:25;;;;;;;;;;;;;;;;;;10478450;28;20318;-82
2023/09/14 11:48:46;;;;;;;;;;;;;;;;;;10482099;28;20327;-81
2023/09/14 11:53:52;;;;;;;;;;;;;;;;;;10485852;28;19947;-82
2023/09/14 11:58:58;;;;;;;;;;;;;;;;;;10484045;28;20007;-82
2023/09/14 12:04:01;;;;;;;;;;;;;;;;;;10482678;28;20023;-82
2023/09/14 12:09:03;;;;;;;;;;;;;;;;;;10481880;28;20023;-82
2023/09/14 12:14:10;;;;;;;;;;;;;;;;;;10483940;28;19931;-82
2023/09/14 12:19:13;;;;;;;;;;;;;;;;;;10482485;28;19921;-81
2023/09/14 12:24:15;;;;;;;;;;;;;;;;;;10481841;28;19927;-82
2023/09/14 12:29:18;;;;;;;;;;;;;;;;;;10480195;28;20028;-81
2023/09/14 12:34:20;;;;;;;;;;;;;;;;;;10477834;28;19938;-81
2023/09/14 12:39:23;;;;;;;;;;;;;;;;;;10482536;28;19997;-81
2023/09/14 12:44:25;;;;;;;;;;;;;;;;;;10488585;28;20011;-80
2023/09/14 12:49:27;;;;;;;;;;;;;;;;;;10485426;28;20504;-80
2023/09/14 12:54:30;;;;;;;;;;;;;;;;;;10479466;28;19928;-81
2023/09/14 12:59:32;;;;;;;;;;;;;;;;;;10480930;28;19994;-80
2023/09/14 13:04:35;;;;;;;;;;;;;;;;;;10479448;28;19921;-80
2023/09/14 13:09:37;;;;;;;;;;;;;;;;;;10479760;28;20011;-78
2023/09/14 13:14:39;;;;;;;;;;;;;;;;;;10490555;28;19920;-80
2023/09/14 13:19:42;;;;;;;;;;;;;;;;;;10490857;28;20075;-78
2023/09/14 13:24:44;;;;;;;;;;;;;;;;;;10478001;28;20397;-83
2023/09/14 13:29:47;;;;;;;;;;;;;;;;;;10484115;28;19924;-79
2023/09/14 13:34:49;;;;;;;;;;;;;;;;;;10484629;28;19975;-79
2023/09/14 13:39:52;;;;;;;;;;;;;;;;;;10487989;28;20426;-77
2023/09/14 13:44:54;;;;;;;;;;;;;;;;;;10482400;28;20299;-78
2023/09/14 13:49:57;;;;;;;;;;;;;;;;;;10483880;28;19928;-78
2023/09/14 13:54:59;;;;;;;;;;;;;;;;;;10485544;28;20022;-78
2023/09/14 14:00:04;;;;;;;;;;;;;;;;;;10491501;28;20385;-77
2023/09/14 14:05:07;;;;;;;;;;;;;;;;;;10487751;28;19964;-77
2023/09/14 14:10:09;;;;;;;;;;;;;;;;;;10482020;28;19924;-78
2023/09/14 14:15:12;;;;;;;;;;;;;;;;;;10491194;28;19928;-80
2023/09/14 14:20:15;;;;;;;;;;;;;;;;;;10483499;28;20481;-81
2023/09/14 14:25:17;;;;;;;;;;;;;;;;;;10755112;22;19920;-75
2023/09/14 14:30:20;;;;;;;;;;;;;;;;;;10517603;28;19959;-76
2023/09/14 14:35:23;;;;;;;;;;;;;;;;;;10518999;28;19920;-76
2023/09/14 14:40:25;;;;;;;;;;;;;;;;;;10525184;28;19958;-77
2023/09/14 14:45:31;;;;;;;;;;;;;;;;;;10522765;28;19920;-75
2023/09/14 14:50:33;;;;;;;;;;;;;;;;;;10524355;28;20644;-74
2023/09/14 14:55:36;;;;;;;;;;;;;;;;;;10527223;28;19920;-75
2023/09/14 15:00:38;;;;;;;;;;;;;;;;;;10531720;28;19939;-76
2023/09/14 15:05:41;;;;;;;;;;;;;;;;;;10530127;28;19965;-75
2023/09/14 15:10:43;;;;;;;;;;;;;;;;;;10525243;28;19926;-76
2023/09/14 15:15:46;;;;;;;;;;;;;;;;;;10522771;28;19924;-77
2023/09/14 15:20:48;;;;;;;;;;;;;;;;;;10522755;28;19920;-77
2023/09/14 15:25:53;;;;;;;;;;;;;;;;;;10519956;28;19959;-77
2023/09/14 15:30:55;;;;;;;;;;;;;;;;;;10520852;28;19990;-75
2023/09/14 15:35:58;;;;;;;;;;;;;;;;;;10519042;28;19924;-77
2023/09/14 15:41:00;;;;;;;;;;;;;;;;;;10522199;28;20026;-77
2023/09/14 15:46:03;;;;;;;;;;;;;;;;;;10524978;28;20483;-76
2023/09/14 15:51:05;;;;;;;;;;;;;;;;;;10525629;28;19928;-77
2023/09/14 15:56:08;;;;;;;;;;;;;;;;;;10527003;28;19959;-75
2023/09/14 16:01:10;;;;;;;;;;;;;;;;;;10531416;28;20370;-74
2023/09/14 16:06:13;;;;;;;;;;;;;;;;;;10521777;28;19954;-76
2023/09/14 16:11:17;;;;;;;;;;;;;;;;;;10523853;28;21054;-78
2023/09/14 16:16:19;;;;;;;;;;;;;;;;;;10529134;28;19927;-77
2023/09/14 16:21:22;;;;;;;;;;;;;;;;;;10523046;28;20363;-75
2023/09/14 16:26:26;;;;;;;;;;;;;;;;;;10526707;28;19930;-75
2023/09/14 16:31:30;;;;;;;;;;;;;;;;;;10525105;28;19927;-78
2023/09/14 16:36:33;;;;;;;;;;;;;;;;;;10529473;28;20129;-75
2023/09/14 16:41:35;;;;;;;;;;;;;;;;;;10523666;28;19920;-77
2023/09/14 16:46:38;;;;;;;;;;;;;;;;;;10528192;28;19920;-77
2023/09/14 16:51:41;;;;;;;;;;;;;;;;;;10526186;28;19925;-77
2023/09/14 16:56:44;;;;;;;;;;;;;;;;;;10529644;28;19999;-78
2023/09/14 17:01:46;;;;;;;;;;;;;;;;;;10527135;28;20028;-76
2023/09/14 17:06:49;;;;;;;;;;;;;;;;;;10527156;28;20433;-76
2023/09/14 17:11:52;;;;;;;;;;;;;;;;;;10526200;28;20133;-76
2023/09/14 17:16:58;;;;;;;;;;;;;;;;;;10526955;28;19943;-77
2023/09/14 17:22:02;;;;;;;;;;;;;;;;;;10525268;28;20440;-78
2023/09/14 17:32:58;;;;;;;;;;;;;;;;;;10529384;28;19912;-76
2023/09/14 17:38:20;;;;;;;;;;;;;;;;;;10525901;28;20034;-79
2023/09/14 17:43:23;;;;;;;;;;;;;;;;;;10525547;28;19920;-77
2023/09/14 17:48:26;;;;;;;;;;;;;;;;;;10528982;28;19926;-77
2023/09/14 17:53:29;;;;;;;;;;;;;;;;;;10525651;28;19924;-78
2023/09/14 17:58:31;;;;;;;;;;;;;;;;;;10534001;28;19957;-77
2023/09/14 18:03:34;;;;;;;;;;;;;;;;;;10528394;28;19981;-77
2023/09/14 18:08:42;;;;;;;;;;;;;;;;;;10522380;28;19924;-77
2023/09/14 18:13:48;;;;;;;;;;;;;;;;;;10522966;28;19947;-77
2023/09/14 18:18:50;;;;;;;;;;;;;;;;;;10525115;28;19965;-76
2023/09/14 18:23:53;;;;;;;;;;;;;;;;;;10523315;28;20334;-76
2023/09/14 18:28:58;;;;;;;;;;;;;;;;;;10524921;28;19930;-76
2023/09/14 18:34:01;;;;;;;;;;;;;;;;;;10521821;28;19930;-79
2023/09/14 18:39:04;;;;;;;;;;;;;;;;;;10525168;28;19950;-78
2023/09/14 18:44:08;;;;;;;;;;;;;;;;;;10525815;28;19920;-77
2023/09/14 18:49:10;;;;;;;;;;;;;;;;;;10523076;28;19927;-77
2023/09/14 18:54:13;;;;;;;;;;;;;;;;;;10521780;28;19993;-78
2023/09/14 18:59:18;;;;;;;;;;;;;;;;;;10518922;28;19977;-77
2023/09/14 19:04:33;;;;;;;;;;;;;;;;;;10518296;28;20011;-77
2023/09/14 19:09:36;;;;;;;;;;;;;;;;;;10521741;28;19920;-77
2023/09/14 19:14:38;;;;;;;;;;;;;;;;;;10527872;28;20014;-76
2023/09/14 19:19:41;;;;;;;;;;;;;;;;;;10524444;28;20026;-77
2023/09/14 19:24:43;;;;;;;;;;;;;;;;;;10523080;28;20027;-78
2023/09/14 19:29:47;;;;;;;;;;;;;;;;;;10514789;28;19928;-77
2023/09/14 19:34:49;;;;;;;;;;;;;;;;;;10515414;28;19926;-77
2023/09/14 19:39:52;;;;;;;;;;;;;;;;;;10519791;28;20032;-76
2023/09/14 19:44:58;;;;;;;;;;;;;;;;;;10518511;28;19943;-78
2023/09/14 19:50:00;;;;;;;;;;;;;;;;;;10514477;28;20294;-78
2023/09/14 19:55:03;;;;;;;;;;;;;;;;;;10515966;28;19923;-78
2023/09/14 20:00:05;;;;;;;;;;;;;;;;;;10520877;28;19936;-76
2023/09/14 20:05:09;;;;;;;;;;;;;;;;;;10514937;28;20016;-77
2023/09/14 20:10:12;;;;;;;;;;;;;;;;;;10514634;28;19928;-77
2023/09/14 20:15:16;;;;;;;;;;;;;;;;;;10512071;28;19928;-77
2023/09/14 20:20:19;;;;;;;;;;;;;;;;;;10516213;28;19928;-78
2023/09/14 20:25:22;;;;;;;;;;;;;;;;;;10516063;28;19972;-77
2023/09/14 20:30:24;;;;;;;;;;;;;;;;;;10511208;28;19927;-77
2023/09/14 20:35:27;;;;;;;;;;;;;;;;;;10516251;28;19920;-77
2023/09/14 20:40:29;;;;;;;;;;;;;;;;;;10521078;28;20312;-77
2023/09/14 20:45:32;;;;;;;;;;;;;;;;;;10517372;28;19924;-77
2023/09/14 20:50:35;;;;;;;;;;;;;;;;;;10524964;28;19948;-77
2023/09/14 20:55:37;;;;;;;;;;;;;;;;;;10515217;28;19973;-77
2023/09/14 21:00:40;;;;;;;;;;;;;;;;;;10516077;28;19934;-76
2023/09/14 21:05:47;;;;;;;;;;;;;;;;;;10516076;28;19952;-76
2023/09/14 21:10:49;;;;;;;;;;;;;;;;;;10523571;28;20490;-75
2023/09/14 21:15:55;;;;;;;;;;;;;;;;;;10526243;28;19999;-76
2023/09/14 21:21:01;;;;;;;;;;;;;;;;;;10530726;28;20012;-76
2023/09/14 21:26:04;;;;;;;;;;;;;;;;;;10528609;28;19963;-75
2023/09/14 21:31:37;;;;;;;;;;;;;;;;;;10530534;28;20340;-75
2023/09/14 21:36:54;;;;;;;;;;;;;;;;;;10523697;28;20250;-76
2023/09/14 21:41:56;;;;;;;;;;;;;;;;;;10528079;28;19928;-75
2023/09/14 21:47:02;;;;;;;;;;;;;;;;;;10524492;28;20415;-77
2023/09/14 21:52:06;;;;;;;;;;;;;;;;;;10531100;28;20510;-76
2023/09/14 21:57:16;;;;;;;;;;;;;;;;;;10534018;28;19931;-76
2023/09/14 22:02:19;;;;;;;;;;;;;;;;;;10522121;28;19971;-72
2023/09/14 22:07:22;;;;;;;;;;;;;;;;;;10523813;28;20588;-73
2023/09/14 22:12:24;;;;;;;;;;;;;;;;;;10525882;28;19924;-74
2023/09/14 22:17:27;;;;;;;;;;;;;;;;;;10524610;28;20015;-74
2023/09/14 22:22:29;;;;;;;;;;;;;;;;;;10524147;28;19931;-74
2023/09/14 22:32:59;;;;;;;;;;;;;;;;;;10566679;27;20010;-74
2023/09/14 22:38:01;;;;;;;;;;;;;;;;;;10568653;27;19959;-74
2023/09/14 22:43:04;;;;;;;;;;;;;;;;;;10567902;27;19924;-75
2023/09/14 22:48:06;;;;;;;;;;;;;;;;;;10564358;27;20052;-73
2023/09/14 22:53:08;;;;;;;;;;;;;;;;;;10546578;27;19951;-74
2023/09/14 22:58:11;;;;;;;;;;;;;;;;;;10558931;28;20030;-74
2023/09/14 23:03:14;;;;;;;;;;;;;;;;;;10560556;28;19930;-74
2023/09/14 23:08:16;;;;;;;;;;;;;;;;;;10564946;28;19927;-74
2023/09/14 23:13:22;;;;;;;;;;;;;;;;;;10556516;28;20074;-75
2023/09/14 23:18:25;;;;;;;;;;;;;;;;;;10559957;27;20444;-73
2023/09/14 23:23:28;;;;;;;;;;;;;;;;;;10565938;28;20423;-74
2023/09/14 23:28:31;;;;;;;;;;;;;;;;;;10559738;27;20293;-74
2023/09/14 23:33:34;;;;;;;;;;;;;;;;;;10561621;28;19920;-75
2023/09/14 23:38:37;;;;;;;;;;;;;;;;;;10565445;28;20146;-74
2023/09/14 23:43:40;;;;;;;;;;;;;;;;;;10563160;27;20003;-74
2023/09/14 23:48:42;;;;;;;;;;;;;;;;;;10561766;28;20291;-75
2023/09/14 23:53:45;;;;;;;;;;;;;;;;;;10564827;28;19938;-74
2023/09/14 23:58:48;;;;;;;;;;;;;;;;;;10563212;28;19926;-74
